Time;durP1;ratioP1;P1;durP2;ratioP2;P2;SDS_P1;SDS_P2;PMS_P1;PMS_P2;Temp;Humidity;BMP_temperature;BMP_pressure;BME280_temperature;BME280_humidity;BME280_pressure;Samples;Min_cycle;Max_cycle;Signal;HPM_P1;HPM_P2
2024/01/14 00:02:23;;;;;;;51.17;22.23;;;;;;;;;;5025714;28;20186;-69
2024/01/14 00:04:48;;;;;;;52.07;22.27;;;;;;;;;;5026384;28;20216;-69
2024/01/14 00:07:13;;;;;;;56.80;23.40;;;;;;;;;;5030647;28;20190;-69
2024/01/14 00:09:39;;;;;;;53.67;20.87;;;;;;;;;;5029006;28;20244;-71
2024/01/14 00:12:05;;;;;;;61.47;23.97;;;;;;;;;;5033416;28;20264;-71
2024/01/14 00:14:30;;;;;;;53.90;22.10;;;;;;;;;;5025107;28;20182;-70
2024/01/14 00:16:55;;;;;;;52.43;20.37;;;;;;;;;;5029961;28;20218;-70
2024/01/14 00:19:20;;;;;;;56.67;23.27;;;;;;;;;;5031817;28;20594;-70
2024/01/14 00:21:46;;;;;;;56.40;23.37;;;;;;;;;;5010261;28;20175;-70
2024/01/14 00:24:11;;;;;;;52.03;21.00;;;;;;;;;;5025862;28;20573;-71
2024/01/14 00:26:36;;;;;;;54.83;22.80;;;;;;;;;;5027540;28;20232;-70
2024/01/14 00:29:02;;;;;;;58.63;23.27;;;;;;;;;;5026749;28;20228;-70
2024/01/14 00:31:27;;;;;;;54.10;22.57;;;;;;;;;;5025806;28;20175;-69
2024/01/14 00:33:52;;;;;;;50.00;21.70;;;;;;;;;;5029374;28;20206;-69
2024/01/14 00:36:18;;;;;;;52.60;22.30;;;;;;;;;;5028332;28;20666;-70
2024/01/14 00:38:44;;;;;;;50.43;22.10;;;;;;;;;;5029113;28;20203;-71
2024/01/14 00:41:09;;;;;;;48.43;21.43;;;;;;;;;;5010570;28;20639;-70
2024/01/14 00:43:34;;;;;;;45.57;20.53;;;;;;;;;;5027588;28;20209;-70
2024/01/14 00:46:00;;;;;;;52.07;20.40;;;;;;;;;;5029846;28;20192;-70
2024/01/14 00:48:25;;;;;;;62.43;23.57;;;;;;;;;;5027491;28;20171;-71
2024/01/14 00:50:50;;;;;;;60.47;24.23;;;;;;;;;;5026707;28;20257;-71
2024/01/14 00:53:16;;;;;;;54.40;24.10;;;;;;;;;;5029942;28;20261;-70
2024/01/14 00:55:41;;;;;;;52.23;21.70;;;;;;;;;;5031099;28;20198;-71
2024/01/14 00:58:06;;;;;;;56.77;23.57;;;;;;;;;;5028553;28;20273;-71
2024/01/14 01:00:31;;;;;;;52.03;22.30;;;;;;;;;;5031374;28;20182;-70
2024/01/14 01:02:56;;;;;;;49.53;21.93;;;;;;;;;;5030485;28;20574;-70
2024/01/14 01:05:22;;;;;;;53.63;21.93;;;;;;;;;;5029361;28;20574;-71
2024/01/14 01:07:47;;;;;;;48.63;22.53;;;;;;;;;;5026728;28;20626;-69
2024/01/14 01:10:12;;;;;;;47.57;21.40;;;;;;;;;;5028924;28;20209;-72
2024/01/14 01:12:38;;;;;;;54.67;22.43;;;;;;;;;;5035308;28;20179;-69
2024/01/14 01:15:05;;;;;;;41.33;21.23;;;;;;;;;;5030362;28;20274;-70
2024/01/14 01:17:30;;;;;;;50.13;23.07;;;;;;;;;;5027159;28;20209;-70
2024/01/14 01:19:56;;;;;;;47.20;21.60;;;;;;;;;;5031444;28;20182;-70
2024/01/14 01:22:21;;;;;;;43.67;20.77;;;;;;;;;;5011617;28;20558;-69
2024/01/14 01:24:46;;;;;;;47.37;22.30;;;;;;;;;;5031671;28;20297;-71
2024/01/14 01:27:11;;;;;;;45.17;20.20;;;;;;;;;;5012100;28;20225;-70
2024/01/14 01:29:37;;;;;;;48.60;20.10;;;;;;;;;;5026334;28;20231;-71
2024/01/14 01:32:02;;;;;;;47.70;21.17;;;;;;;;;;5013611;28;20273;-69
2024/01/14 01:34:27;;;;;;;51.00;21.67;;;;;;;;;;5028527;28;20182;-70
2024/01/14 01:36:53;;;;;;;41.80;20.07;;;;;;;;;;5027431;28;20202;-69
2024/01/14 01:39:18;;;;;;;41.47;20.53;;;;;;;;;;5031093;28;20235;-71
2024/01/14 01:41:44;;;;;;;37.20;19.27;;;;;;;;;;5010379;28;20194;-70
2024/01/14 01:44:09;;;;;;;44.63;19.37;;;;;;;;;;5010585;28;20211;-70
2024/01/14 01:46:34;;;;;;;44.70;18.93;;;;;;;;;;5009103;28;20552;-69
2024/01/14 01:49:00;;;;;;;44.83;18.97;;;;;;;;;;5029453;28;20619;-69
2024/01/14 01:51:25;;;;;;;47.27;21.93;;;;;;;;;;5031110;28;20178;-71
2024/01/14 01:53:51;;;;;;;47.10;21.60;;;;;;;;;;5029591;28;20182;-70
2024/01/14 01:56:16;;;;;;;47.60;21.73;;;;;;;;;;5028193;28;20566;-69
2024/01/14 01:58:42;;;;;;;46.17;21.53;;;;;;;;;;5028345;28;20182;-69
2024/01/14 02:01:07;;;;;;;50.70;21.97;;;;;;;;;;5030682;28;20225;-70
2024/01/14 02:03:33;;;;;;;56.33;24.90;;;;;;;;;;5025589;28;20225;-71
2024/01/14 02:05:58;;;;;;;51.63;22.70;;;;;;;;;;5027545;28;20271;-70
2024/01/14 02:08:25;;;;;;;47.17;23.90;;;;;;;;;;5026954;28;20254;-71
2024/01/14 02:10:50;;;;;;;49.87;23.43;;;;;;;;;;5009377;28;20665;-71
2024/01/14 02:13:15;;;;;;;55.07;24.07;;;;;;;;;;5027075;28;20190;-71
2024/01/14 02:18:07;;;;;;;49.53;22.23;;;;;;;;;;5028993;28;20234;-70
2024/01/14 02:20:33;;;;;;;50.03;22.30;;;;;;;;;;5030799;28;20177;-69
2024/01/14 02:22:59;;;;;;;47.17;23.13;;;;;;;;;;5029986;28;20641;-69
2024/01/14 02:25:25;;;;;;;50.37;24.10;;;;;;;;;;5029163;28;20178;-69
2024/01/14 02:27:50;;;;;;;54.47;22.87;;;;;;;;;;5026735;28;20200;-69
2024/01/14 02:30:16;;;;;;;56.73;22.83;;;;;;;;;;5013580;28;20240;-69
2024/01/14 02:32:42;;;;;;;41.90;21.47;;;;;;;;;;5031246;28;20240;-69
2024/01/14 02:35:07;;;;;;;51.77;22.60;;;;;;;;;;5009043;28;20191;-69
2024/01/14 02:37:33;;;;;;;48.83;22.90;;;;;;;;;;5030268;28;20202;-69
2024/01/14 02:39:58;;;;;;;50.67;22.60;;;;;;;;;;5028221;28;20631;-68
2024/01/14 02:42:23;;;;;;;52.30;21.77;;;;;;;;;;5028077;28;20181;-69
2024/01/14 02:44:48;;;;;;;48.07;22.33;;;;;;;;;;5029763;28;20217;-70
2024/01/14 02:47:14;;;;;;;47.73;21.37;;;;;;;;;;5029500;28;20634;-70
2024/01/14 02:49:39;;;;;;;50.27;22.57;;;;;;;;;;5031235;28;20186;-69
2024/01/14 02:52:04;;;;;;;47.60;21.50;;;;;;;;;;5029919;28;20198;-69
2024/01/14 02:54:29;;;;;;;56.13;23.70;;;;;;;;;;5033006;28;20181;-68
2024/01/14 02:56:55;;;;;;;48.03;21.63;;;;;;;;;;5012793;28;20194;-70
2024/01/14 02:59:20;;;;;;;47.70;22.83;;;;;;;;;;5029979;28;20181;-69
2024/01/14 03:01:48;;;;;;;49.73;24.87;;;;;;;;;;5026565;28;20170;-69
2024/01/14 03:04:13;;;;;;;53.43;22.67;;;;;;;;;;5029666;28;20202;-68
2024/01/14 03:06:38;;;;;;;51.67;23.53;;;;;;;;;;5029421;28;20197;-68
2024/01/14 03:09:06;;;;;;;54.63;23.03;;;;;;;;;;5029816;28;20551;-70
2024/01/14 03:11:31;;;;;;;52.13;23.07;;;;;;;;;;5029908;28;20175;-69
2024/01/14 03:13:57;;;;;;;50.60;22.67;;;;;;;;;;5012276;28;20179;-68
2024/01/14 03:16:22;;;;;;;57.47;24.83;;;;;;;;;;5027043;28;20308;-69
2024/01/14 03:18:47;;;;;;;50.63;23.40;;;;;;;;;;5033813;28;20173;-69
2024/01/14 03:21:17;;;;;;;49.33;23.67;;;;;;;;;;5032172;28;20182;-69
2024/01/14 03:23:42;;;;;;;49.30;24.77;;;;;;;;;;5033312;28;20573;-69
2024/01/14 03:26:08;;;;;;;54.67;25.90;;;;;;;;;;5031221;28;20205;-69
2024/01/14 03:28:33;;;;;;;47.50;22.03;;;;;;;;;;5032838;28;20520;-69
2024/01/14 03:30:58;;;;;;;48.03;24.50;;;;;;;;;;5030796;28;20662;-69
2024/01/14 03:33:23;;;;;;;51.00;22.67;;;;;;;;;;5013286;28;20178;-69
2024/01/14 03:35:49;;;;;;;51.97;23.10;;;;;;;;;;5030355;28;20701;-69
2024/01/14 03:38:14;;;;;;;48.23;23.07;;;;;;;;;;5032634;28;20185;-68
2024/01/14 03:40:40;;;;;;;55.80;25.83;;;;;;;;;;5029872;28;20457;-68
2024/01/14 03:43:05;;;;;;;50.07;23.37;;;;;;;;;;5032036;28;20552;-69
2024/01/14 03:45:30;;;;;;;52.63;25.47;;;;;;;;;;5032266;28;20652;-69
2024/01/14 03:47:55;;;;;;;56.97;25.30;;;;;;;;;;5033854;28;20205;-69
2024/01/14 03:50:20;;;;;;;56.83;26.33;;;;;;;;;;5032273;28;20206;-69
2024/01/14 03:52:46;;;;;;;49.50;23.93;;;;;;;;;;5030509;28;20192;-69
2024/01/14 03:55:11;;;;;;;55.20;25.47;;;;;;;;;;5029661;28;20182;-69
2024/01/14 03:57:36;;;;;;;56.67;25.83;;;;;;;;;;5030916;28;20208;-70
2024/01/14 04:00:01;;;;;;;50.73;24.40;;;;;;;;;;5031329;28;20407;-68
2024/01/14 04:02:26;;;;;;;58.73;26.80;;;;;;;;;;5031290;28;20174;-67
2024/01/14 04:04:52;;;;;;;53.40;25.80;;;;;;;;;;5031379;28;20216;-69
2024/01/14 04:07:17;;;;;;;50.50;24.97;;;;;;;;;;5033651;28;20199;-68
2024/01/14 04:09:43;;;;;;;51.07;25.40;;;;;;;;;;5032123;28;20177;-69
2024/01/14 04:12:08;;;;;;;54.97;26.07;;;;;;;;;;5031895;28;20189;-68
2024/01/14 04:14:33;;;;;;;55.77;23.73;;;;;;;;;;5030743;28;20191;-69
2024/01/14 04:16:58;;;;;;;51.23;25.33;;;;;;;;;;5030976;28;20214;-69
2024/01/14 04:19:24;;;;;;;47.30;22.70;;;;;;;;;;5030382;28;20178;-69
2024/01/14 04:21:49;;;;;;;45.30;23.57;;;;;;;;;;5031317;28;20706;-69
2024/01/14 04:24:14;;;;;;;56.50;24.80;;;;;;;;;;5031769;28;20202;-70
2024/01/14 04:26:39;;;;;;;48.97;22.93;;;;;;;;;;5031520;28;20202;-70
2024/01/14 04:29:05;;;;;;;51.87;23.03;;;;;;;;;;5029111;28;20178;-69
2024/01/14 04:31:30;;;;;;;50.23;23.97;;;;;;;;;;5029368;28;20171;-69
2024/01/14 04:33:56;;;;;;;48.10;22.90;;;;;;;;;;5030717;28;20273;-69
2024/01/14 04:36:21;;;;;;;51.73;23.00;;;;;;;;;;5031800;28;20583;-69
2024/01/14 04:38:47;;;;;;;48.57;22.47;;;;;;;;;;5031428;28;20175;-69
2024/01/14 04:41:12;;;;;;;53.17;23.50;;;;;;;;;;5028964;28;20616;-69
2024/01/14 04:43:37;;;;;;;53.80;23.27;;;;;;;;;;5030322;28;20189;-68
2024/01/14 04:46:06;;;;;;;46.20;21.70;;;;;;;;;;5029794;28;20202;-69
2024/01/14 04:48:31;;;;;;;48.13;23.33;;;;;;;;;;5031474;28;20241;-69
2024/01/14 04:50:57;;;;;;;48.20;23.87;;;;;;;;;;5026804;28;20179;-69
2024/01/14 04:53:22;;;;;;;44.93;22.97;;;;;;;;;;5031357;28;20190;-68
2024/01/14 04:55:47;;;;;;;48.03;22.20;;;;;;;;;;5030102;28;20182;-69
2024/01/14 04:58:12;;;;;;;45.93;22.53;;;;;;;;;;5028691;28;20201;-67
2024/01/14 05:00:38;;;;;;;47.73;23.30;;;;;;;;;;5016390;28;20268;-69
2024/01/14 05:03:03;;;;;;;45.70;22.60;;;;;;;;;;5032875;28;20187;-69
2024/01/14 05:05:28;;;;;;;46.30;24.63;;;;;;;;;;5011280;28;20167;-68
2024/01/14 05:07:54;;;;;;;43.53;22.50;;;;;;;;;;5030662;28;20462;-69
2024/01/14 05:10:19;;;;;;;52.33;24.93;;;;;;;;;;5030606;28;20182;-69
2024/01/14 05:12:44;;;;;;;54.87;23.17;;;;;;;;;;5030734;28;20174;-69
2024/01/14 05:15:09;;;;;;;52.17;22.00;;;;;;;;;;5029766;28;20197;-69
2024/01/14 05:17:34;;;;;;;56.07;26.40;;;;;;;;;;5016214;28;20256;-69
2024/01/14 05:20:00;;;;;;;48.50;23.27;;;;;;;;;;5030589;28;20220;-68
2024/01/14 05:22:26;;;;;;;52.13;23.33;;;;;;;;;;5031239;28;20190;-69
2024/01/14 05:24:51;;;;;;;51.20;24.80;;;;;;;;;;5028846;28;20205;-69
2024/01/14 05:27:16;;;;;;;50.83;25.27;;;;;;;;;;5013298;28;20225;-68
2024/01/14 05:29:42;;;;;;;50.27;23.93;;;;;;;;;;5009227;28;20541;-69
2024/01/14 05:32:08;;;;;;;50.47;22.93;;;;;;;;;;5028240;28;20663;-69
2024/01/14 05:34:33;;;;;;;47.77;23.00;;;;;;;;;;5029588;28;20178;-70
2024/01/14 05:36:59;;;;;;;54.07;23.57;;;;;;;;;;5011496;28;20230;-69
2024/01/14 05:39:25;;;;;;;46.93;23.90;;;;;;;;;;5028513;28;20366;-69
2024/01/14 05:41:50;;;;;;;50.40;22.80;;;;;;;;;;5029978;28;20642;-69
2024/01/14 05:44:15;;;;;;;42.60;22.03;;;;;;;;;;5030231;28;20238;-69
2024/01/14 05:46:40;;;;;;;44.43;20.97;;;;;;;;;;5023913;28;20251;-69
2024/01/14 05:49:06;;;;;;;46.03;22.50;;;;;;;;;;5032485;28;20209;-68
2024/01/14 05:51:31;;;;;;;51.30;24.67;;;;;;;;;;5027805;28;20180;-69
2024/01/14 05:53:56;;;;;;;52.33;25.20;;;;;;;;;;5030479;28;20174;-69
2024/01/14 05:56:26;;;;;;;54.43;24.63;;;;;;;;;;5026849;28;20609;-69
2024/01/14 05:58:51;;;;;;;52.73;25.23;;;;;;;;;;5032529;28;20233;-70
2024/01/14 06:01:16;;;;;;;62.03;26.33;;;;;;;;;;5033336;28;20556;-69
2024/01/14 06:03:41;;;;;;;56.83;24.83;;;;;;;;;;5014478;28;20197;-69
2024/01/14 06:06:08;;;;;;;53.03;23.87;;;;;;;;;;5023875;28;20499;-69
2024/01/14 06:08:33;;;;;;;55.20;25.73;;;;;;;;;;5009981;28;20274;-70
2024/01/14 06:10:59;;;;;;;54.07;25.03;;;;;;;;;;5027909;28;20637;-69
2024/01/14 06:13:24;;;;;;;52.33;23.93;;;;;;;;;;5029207;28;20221;-69
2024/01/14 06:15:49;;;;;;;53.23;25.27;;;;;;;;;;5028995;28;20181;-70
2024/01/14 06:18:14;;;;;;;54.37;23.90;;;;;;;;;;5029934;28;20205;-68
2024/01/14 06:20:39;;;;;;;48.77;22.97;;;;;;;;;;5011021;28;20182;-69
2024/01/14 06:23:05;;;;;;;56.17;24.57;;;;;;;;;;5029456;28;20221;-68
2024/01/14 06:25:30;;;;;;;49.43;22.63;;;;;;;;;;5028795;28;20317;-69
2024/01/14 06:27:55;;;;;;;57.77;25.30;;;;;;;;;;5029136;28;20284;-69
2024/01/14 06:30:20;;;;;;;51.67;22.60;;;;;;;;;;5027812;28;20205;-69
2024/01/14 06:32:46;;;;;;;57.67;25.87;;;;;;;;;;5029707;28;20253;-69
2024/01/14 06:35:11;;;;;;;50.97;22.40;;;;;;;;;;5027185;28;20185;-69
2024/01/14 06:37:37;;;;;;;51.97;23.43;;;;;;;;;;5029763;28;20248;-70
2024/01/14 06:40:03;;;;;;;55.00;26.17;;;;;;;;;;5008980;28;20635;-69
2024/01/14 06:42:28;;;;;;;55.93;24.00;;;;;;;;;;5029892;28;20178;-69
2024/01/14 06:44:53;;;;;;;47.47;23.57;;;;;;;;;;5026940;28;20198;-69
2024/01/14 06:47:19;;;;;;;54.30;23.83;;;;;;;;;;5029755;28;20559;-69
2024/01/14 06:49:44;;;;;;;55.77;24.00;;;;;;;;;;5008176;28;20190;-69
2024/01/14 06:52:09;;;;;;;57.67;24.33;;;;;;;;;;5031880;28;20252;-69
2024/01/14 06:54:37;;;;;;;57.40;24.00;;;;;;;;;;5014761;28;20186;-68
2024/01/14 06:57:02;;;;;;;54.57;25.00;;;;;;;;;;5031592;28;20234;-68
2024/01/14 06:59:28;;;;;;;48.20;23.70;;;;;;;;;;5013479;28;20244;-69
2024/01/14 07:01:53;;;;;;;52.33;23.07;;;;;;;;;;5028953;28;20174;-69
2024/01/14 07:04:18;;;;;;;55.53;23.83;;;;;;;;;;5032641;28;20316;-69
2024/01/14 07:06:43;;;;;;;54.47;22.83;;;;;;;;;;5031987;28;20206;-69
2024/01/14 07:09:10;;;;;;;57.97;23.30;;;;;;;;;;5013988;28;20265;-69
2024/01/14 07:11:35;;;;;;;60.57;24.70;;;;;;;;;;5032998;28;20633;-69
2024/01/14 07:14:01;;;;;;;50.27;21.63;;;;;;;;;;5016417;28;20193;-70
2024/01/14 07:16:26;;;;;;;59.37;23.97;;;;;;;;;;5012818;28;20220;-69
2024/01/14 07:18:51;;;;;;;56.40;24.43;;;;;;;;;;5028058;28;20236;-70
2024/01/14 07:21:20;;;;;;;57.43;23.67;;;;;;;;;;5024610;28;20183;-69
2024/01/14 07:23:46;;;;;;;51.47;22.87;;;;;;;;;;5029743;28;20213;-69
2024/01/14 07:26:12;;;;;;;50.80;23.90;;;;;;;;;;5014911;28;20198;-67
2024/01/14 07:28:37;;;;;;;47.83;21.87;;;;;;;;;;5031757;28;20206;-69
2024/01/14 07:31:03;;;;;;;51.13;24.23;;;;;;;;;;5013954;28;20676;-69
2024/01/14 07:33:28;;;;;;;57.37;23.40;;;;;;;;;;5029431;28;20228;-69
2024/01/14 07:35:55;;;;;;;46.27;22.27;;;;;;;;;;5031594;28;20194;-69
2024/01/14 07:38:20;;;;;;;49.50;22.20;;;;;;;;;;5030023;28;20233;-70
2024/01/14 07:40:45;;;;;;;51.53;21.67;;;;;;;;;;5014482;28;20273;-69
2024/01/14 07:43:10;;;;;;;55.23;22.23;;;;;;;;;;5031620;28;20191;-69
2024/01/14 07:45:36;;;;;;;52.70;23.67;;;;;;;;;;5012738;28;20185;-70
2024/01/14 07:48:02;;;;;;;48.23;23.57;;;;;;;;;;5031502;28;20175;-69
2024/01/14 07:50:27;;;;;;;47.83;22.37;;;;;;;;;;5032529;28;20178;-70
2024/01/14 07:52:52;;;;;;;50.80;22.27;;;;;;;;;;5031199;28;20184;-69
2024/01/14 07:55:17;;;;;;;45.87;22.07;;;;;;;;;;5030205;28;20183;-68
2024/01/14 07:57:43;;;;;;;50.33;22.47;;;;;;;;;;5030977;28;20194;-70
2024/01/14 08:00:08;;;;;;;44.90;20.07;;;;;;;;;;5030299;28;20638;-68
2024/01/14 08:02:34;;;;;;;45.03;21.07;;;;;;;;;;5024706;28;20189;-69
2024/01/14 08:04:59;;;;;;;40.60;18.43;;;;;;;;;;5024631;28;20202;-69
2024/01/14 08:07:24;;;;;;;42.03;19.77;;;;;;;;;;5027922;28;20195;-68
2024/01/14 08:09:49;;;;;;;41.40;19.13;;;;;;;;;;5008727;28;20175;-69
2024/01/14 08:12:15;;;;;;;41.93;18.93;;;;;;;;;;5007220;28;20563;-69
2024/01/14 08:14:40;;;;;;;43.63;18.03;;;;;;;;;;5031978;28;20185;-69
2024/01/14 08:17:05;;;;;;;43.13;19.03;;;;;;;;;;5097220;23;20246;-69
2024/01/14 08:19:30;;;;;;;41.53;19.70;;;;;;;;;;5031933;28;20527;-69
2024/01/14 08:21:56;;;;;;;46.67;20.03;;;;;;;;;;5030960;28;20189;-70
2024/01/14 08:24:21;;;;;;;43.27;20.73;;;;;;;;;;5030897;28;20209;-71
2024/01/14 08:26:46;;;;;;;40.63;18.93;;;;;;;;;;5031899;28;20244;-70
2024/01/14 08:29:13;;;;;;;49.83;20.77;;;;;;;;;;5030470;28;20175;-69
2024/01/14 08:31:38;;;;;;;44.03;20.80;;;;;;;;;;5009276;28;20181;-70
2024/01/14 08:34:04;;;;;;;48.63;23.37;;;;;;;;;;5028784;28;20182;-72
2024/01/14 08:36:31;;;;;;;44.57;21.37;;;;;;;;;;5029904;28;20198;-71
2024/01/14 08:38:56;;;;;;;49.33;20.37;;;;;;;;;;5033746;28;20228;-69
2024/01/14 08:41:24;;;;;;;46.77;21.50;;;;;;;;;;5031997;28;20682;-69
2024/01/14 08:43:49;;;;;;;46.77;22.70;;;;;;;;;;5014579;28;20209;-70
2024/01/14 08:46:15;;;;;;;53.33;23.03;;;;;;;;;;5031613;28;20202;-71
2024/01/14 08:48:42;;;;;;;58.73;24.97;;;;;;;;;;5031898;28;20543;-70
2024/01/14 08:51:08;;;;;;;52.50;22.50;;;;;;;;;;5026381;28;20645;-70
2024/01/14 08:53:33;;;;;;;48.83;23.00;;;;;;;;;;5033711;28;20190;-70
2024/01/14 08:55:58;;;;;;;51.27;21.50;;;;;;;;;;5011982;28;20186;-70
2024/01/14 08:58:24;;;;;;;50.67;23.23;;;;;;;;;;5028656;28;20189;-70
2024/01/14 09:00:49;;;;;;;48.50;22.73;;;;;;;;;;5014292;28;20190;-70
2024/01/14 09:03:14;;;;;;;53.03;21.87;;;;;;;;;;5028584;28;20201;-71
2024/01/14 09:05:40;;;;;;;47.33;21.83;;;;;;;;;;5031436;28;20171;-68
2024/01/14 09:08:05;;;;;;;55.37;23.73;;;;;;;;;;5030070;28;20194;-70
2024/01/14 09:10:30;;;;;;;52.87;23.27;;;;;;;;;;5027893;28;20266;-70
2024/01/14 09:12:56;;;;;;;53.00;22.80;;;;;;;;;;5031117;28;20213;-70
2024/01/14 09:15:21;;;;;;;49.93;22.37;;;;;;;;;;5027956;28;20202;-70
2024/01/14 09:17:46;;;;;;;61.73;24.13;;;;;;;;;;5030060;28;20260;-70
2024/01/14 09:20:11;;;;;;;52.63;22.90;;;;;;;;;;5026600;28;20183;-71
2024/01/14 09:22:36;;;;;;;57.57;23.20;;;;;;;;;;5030619;28;20220;-71
2024/01/14 09:25:02;;;;;;;52.17;23.90;;;;;;;;;;5029752;28;20597;-70
2024/01/14 09:27:30;;;;;;;47.77;23.50;;;;;;;;;;5028347;28;20198;-70
2024/01/14 09:29:55;;;;;;;46.60;21.60;;;;;;;;;;5029905;28;20593;-71
2024/01/14 09:32:21;;;;;;;50.47;23.03;;;;;;;;;;5030644;28;20692;-72
2024/01/14 09:34:46;;;;;;;45.00;22.43;;;;;;;;;;5029602;28;20182;-70
2024/01/14 09:37:11;;;;;;;54.77;22.40;;;;;;;;;;5029626;28;20204;-70
2024/01/14 09:39:36;;;;;;;45.50;21.47;;;;;;;;;;5028541;28;20182;-71
2024/01/14 09:42:12;;;;;;;52.97;24.30;;;;;;;;;;5029187;28;20208;-70
2024/01/14 09:44:38;;;;;;;46.97;21.37;;;;;;;;;;5030192;28;20199;-71
2024/01/14 09:47:03;;;;;;;45.53;21.40;;;;;;;;;;5024462;28;20285;-71
2024/01/14 09:49:29;;;;;;;47.50;23.37;;;;;;;;;;5028993;28;20194;-71
2024/01/14 09:51:55;;;;;;;53.63;22.30;;;;;;;;;;5029806;28;20183;-70
2024/01/14 09:54:21;;;;;;;51.10;22.63;;;;;;;;;;5030310;28;20236;-70
2024/01/14 09:56:48;;;;;;;51.10;21.87;;;;;;;;;;5025983;28;20197;-71
2024/01/14 09:59:16;;;;;;;50.20;23.63;;;;;;;;;;5011287;28;20592;-70
2024/01/14 10:01:41;;;;;;;48.53;22.20;;;;;;;;;;5030112;28;20248;-71
2024/01/14 10:04:07;;;;;;;47.03;22.27;;;;;;;;;;5025328;28;20663;-71
2024/01/14 10:06:32;;;;;;;58.23;24.93;;;;;;;;;;5028065;28;20206;-70
2024/01/14 10:08:58;;;;;;;47.83;22.80;;;;;;;;;;5028132;28;20228;-70
2024/01/14 10:11:23;;;;;;;51.97;23.63;;;;;;;;;;5029106;28;20186;-70
2024/01/14 10:13:48;;;;;;;54.27;23.47;;;;;;;;;;5029654;28;20185;-70
2024/01/14 10:16:14;;;;;;;51.20;23.43;;;;;;;;;;5028047;28;20228;-70
2024/01/14 10:18:39;;;;;;;54.50;23.20;;;;;;;;;;5012108;28;20263;-71
2024/01/14 10:21:04;;;;;;;48.27;22.67;;;;;;;;;;5030115;28;20269;-70
2024/01/14 10:23:30;;;;;;;52.20;21.93;;;;;;;;;;5025337;28;20198;-71
2024/01/14 10:26:01;;;;;;;49.73;22.37;;;;;;;;;;5023667;28;20556;-69
2024/01/14 10:28:29;;;;;;;46.47;21.10;;;;;;;;;;5024919;28;20343;-70
2024/01/14 10:30:54;;;;;;;45.93;20.97;;;;;;;;;;5024964;28;20182;-71
2024/01/14 10:33:20;;;;;;;48.37;23.03;;;;;;;;;;5030017;28;20182;-70
2024/01/14 10:35:45;;;;;;;52.30;22.03;;;;;;;;;;5030121;28;20193;-70
2024/01/14 10:38:10;;;;;;;47.17;21.63;;;;;;;;;;5030387;28;20221;-69
2024/01/14 10:40:35;;;;;;;51.37;22.00;;;;;;;;;;5027259;28;20190;-70
2024/01/14 10:43:02;;;;;;;41.23;20.87;;;;;;;;;;5027026;28;20182;-69
2024/01/14 10:45:27;;;;;;;52.50;21.10;;;;;;;;;;5028902;28;20181;-69
2024/01/14 10:47:55;;;;;;;41.73;21.03;;;;;;;;;;5009512;28;20277;-70
2024/01/14 10:50:22;;;;;;;46.80;22.73;;;;;;;;;;5028581;28;20189;-70
2024/01/14 10:52:54;;;;;;;47.13;21.63;;;;;;;;;;5028530;28;20163;-70
2024/01/14 10:55:19;;;;;;;46.57;20.83;;;;;;;;;;5030055;28;20257;-70
2024/01/14 10:57:44;;;;;;;44.37;21.87;;;;;;;;;;5030081;28;20293;-70
2024/01/14 11:00:11;;;;;;;46.13;21.77;;;;;;;;;;5029624;28;20198;-71
2024/01/14 11:02:37;;;;;;;44.90;20.60;;;;;;;;;;5026301;28;20194;-70
2024/01/14 11:05:03;;;;;;;55.00;21.50;;;;;;;;;;5027117;28;20216;-70
2024/01/14 11:07:30;;;;;;;42.63;19.83;;;;;;;;;;5020619;28;20190;-71
2024/01/14 11:09:56;;;;;;;50.90;20.40;;;;;;;;;;5026251;28;20178;-70
2024/01/14 11:12:29;;;;;;;43.10;21.40;;;;;;;;;;5029295;28;20235;-70
2024/01/14 11:15:01;;;;;;;42.50;20.57;;;;;;;;;;5012325;28;20178;-70
2024/01/14 11:17:38;;;;;;;49.43;20.67;;;;;;;;;;5026365;28;20217;-69
2024/01/14 11:20:05;;;;;;;46.20;21.30;;;;;;;;;;5022217;28;20236;-70
2024/01/14 11:22:30;;;;;;;38.97;18.43;;;;;;;;;;5023014;28;20659;-70
2024/01/14 11:24:55;;;;;;;39.20;19.90;;;;;;;;;;5026937;28;20259;-70
2024/01/14 11:27:20;;;;;;;42.27;20.27;;;;;;;;;;5030443;28;20202;-70
2024/01/14 11:29:46;;;;;;;43.27;20.80;;;;;;;;;;5029046;28;20228;-70
2024/01/14 11:32:12;;;;;;;39.47;19.67;;;;;;;;;;5030422;28;20313;-70
2024/01/14 11:34:47;;;;;;;49.53;19.83;;;;;;;;;;5025519;28;20684;-69
2024/01/14 11:37:32;;;;;;;41.10;18.60;;;;;;;;;;5025763;28;20715;-70
2024/01/14 11:40:06;;;;;;;49.90;19.80;;;;;;;;;;5026797;28;20553;-69
2024/01/14 11:42:42;;;;;;;41.50;20.13;;;;;;;;;;5029445;28;20217;-70
2024/01/14 11:45:30;;;;;;;38.13;16.63;;;;;;;;;;5019969;28;20696;-71
2024/01/14 11:47:56;;;;;;;35.43;19.50;;;;;;;;;;5030005;28;20198;-69
2024/01/14 11:50:23;;;;;;;36.33;17.67;;;;;;;;;;5032773;28;20174;-70
2024/01/14 11:52:49;;;;;;;35.83;16.70;;;;;;;;;;5031238;28;20666;-70
2024/01/14 11:55:17;;;;;;;39.10;15.90;;;;;;;;;;5031306;28;20182;-70
2024/01/14 11:57:44;;;;;;;37.03;17.33;;;;;;;;;;5026975;28;20206;-71
2024/01/14 12:00:10;;;;;;;34.03;17.23;;;;;;;;;;5032735;28;20232;-71
2024/01/14 12:02:35;;;;;;;33.47;15.23;;;;;;;;;;5010767;28;20179;-70
2024/01/14 12:05:19;;;;;;;38.10;16.73;;;;;;;;;;5008175;28;20628;-71
2024/01/14 12:07:45;;;;;;;39.60;17.23;;;;;;;;;;5011057;28;20209;-69
2024/01/14 12:10:14;;;;;;;35.80;17.33;;;;;;;;;;5014140;28;20174;-70
2024/01/14 12:12:40;;;;;;;37.27;17.93;;;;;;;;;;5032389;28;20178;-71
2024/01/14 12:15:05;;;;;;;48.07;19.97;;;;;;;;;;5033533;28;20213;-70
2024/01/14 12:17:31;;;;;;;37.60;18.50;;;;;;;;;;5031623;28;20244;-71
2024/01/14 12:19:58;;;;;;;33.10;17.03;;;;;;;;;;5029328;28;20664;-69
2024/01/14 12:22:23;;;;;;;43.70;18.93;;;;;;;;;;5030522;28;20221;-70
2024/01/14 12:24:48;;;;;;;39.10;18.57;;;;;;;;;;5009654;28;20237;-69
2024/01/14 12:27:14;;;;;;;36.57;18.30;;;;;;;;;;5029295;28;20296;-69
2024/01/14 12:29:40;;;;;;;39.53;17.57;;;;;;;;;;5010593;28;20182;-70
2024/01/14 12:32:05;;;;;;;35.17;17.70;;;;;;;;;;5033181;28;20257;-70
2024/01/14 12:34:30;;;;;;;37.80;18.57;;;;;;;;;;5012573;28;20189;-70
2024/01/14 12:36:56;;;;;;;36.73;17.20;;;;;;;;;;5032669;28;20285;-69
2024/01/14 12:39:21;;;;;;;37.87;18.37;;;;;;;;;;5028974;28;20185;-70
2024/01/14 12:41:46;;;;;;;34.83;17.67;;;;;;;;;;5014487;28;20263;-70
2024/01/14 12:44:11;;;;;;;37.60;17.33;;;;;;;;;;5029731;28;20202;-70
2024/01/14 12:46:36;;;;;;;38.33;17.57;;;;;;;;;;5030998;28;20206;-70
2024/01/14 12:49:05;;;;;;;36.60;16.63;;;;;;;;;;5009525;28;20178;-70
2024/01/14 12:51:30;;;;;;;40.27;17.30;;;;;;;;;;5030155;28;20220;-70
2024/01/14 12:53:56;;;;;;;32.07;16.17;;;;;;;;;;5032730;28;20182;-70
2024/01/14 12:56:23;;;;;;;29.17;14.73;;;;;;;;;;5030533;28;20292;-71
2024/01/14 12:58:49;;;;;;;32.77;15.00;;;;;;;;;;5028775;28;20178;-69
2024/01/14 13:01:14;;;;;;;29.40;15.40;;;;;;;;;;5031773;28;20243;-70
2024/01/14 13:03:40;;;;;;;29.07;13.73;;;;;;;;;;5011607;28;20225;-70
2024/01/14 13:06:05;;;;;;;32.13;15.00;;;;;;;;;;5030986;28;20493;-69
2024/01/14 13:08:31;;;;;;;29.47;15.40;;;;;;;;;;5027119;28;20174;-70
2024/01/14 13:10:56;;;;;;;27.27;15.13;;;;;;;;;;5029734;28;20174;-71
2024/01/14 13:13:21;;;;;;;29.63;16.53;;;;;;;;;;5013623;28;20557;-71
2024/01/14 13:15:47;;;;;;;30.87;16.60;;;;;;;;;;5030934;28;20776;-71
2024/01/14 13:18:12;;;;;;;30.60;16.00;;;;;;;;;;5029508;28;20197;-70
2024/01/14 13:20:37;;;;;;;29.80;15.63;;;;;;;;;;5030604;28;20171;-69
2024/01/14 13:23:02;;;;;;;32.83;14.67;;;;;;;;;;5027301;28;20233;-69
2024/01/14 13:25:28;;;;;;;29.70;15.03;;;;;;;;;;5008188;28;20214;-70
2024/01/14 13:27:55;;;;;;;34.53;16.00;;;;;;;;;;5028904;28;20194;-71
2024/01/14 13:30:21;;;;;;;29.23;16.07;;;;;;;;;;5012446;28;20174;-70
2024/01/14 13:32:47;;;;;;;33.13;17.50;;;;;;;;;;5009800;28;20174;-70
2024/01/14 13:35:12;;;;;;;29.63;15.17;;;;;;;;;;5030611;28;20537;-70
2024/01/14 13:37:38;;;;;;;32.37;16.70;;;;;;;;;;5028368;28;20665;-70
2024/01/14 13:40:06;;;;;;;29.47;15.37;;;;;;;;;;5010283;28;20709;-71
2024/01/14 13:42:32;;;;;;;29.70;14.60;;;;;;;;;;5013596;28;20210;-70
2024/01/14 13:44:57;;;;;;;25.50;14.57;;;;;;;;;;5029156;28;20287;-70
2024/01/14 13:47:22;;;;;;;27.37;12.90;;;;;;;;;;5031163;28;20198;-70
2024/01/14 13:49:48;;;;;;;23.40;12.10;;;;;;;;;;5012425;28;20178;-71
2024/01/14 13:52:13;;;;;;;25.33;12.50;;;;;;;;;;5027959;28;20257;-69
2024/01/14 13:54:39;;;;;;;25.87;12.87;;;;;;;;;;5010424;28;20178;-70
2024/01/14 13:57:05;;;;;;;25.30;13.20;;;;;;;;;;5026283;28;20275;-69
2024/01/14 13:59:31;;;;;;;25.03;12.53;;;;;;;;;;5027725;28;20721;-69
2024/01/14 14:01:56;;;;;;;23.87;12.53;;;;;;;;;;5028199;28;20578;-68
2024/01/14 14:04:21;;;;;;;32.80;15.13;;;;;;;;;;5012666;28;20567;-69
2024/01/14 14:06:46;;;;;;;29.43;15.50;;;;;;;;;;5029075;28;20281;-70
2024/01/14 14:09:12;;;;;;;24.40;13.87;;;;;;;;;;5028776;28;20170;-71
2024/01/14 14:11:38;;;;;;;32.13;14.93;;;;;;;;;;5030780;28;20257;-69